Time;durP1;ratioP1;P1;durP2;ratioP2;P2;SDS_P1;SDS_P2;PMS_P1;PMS_P2;Temp;Humidity;BMP_temperature;BMP_pressure;BME280_temperature;BME280_humidity;BME280_pressure;Samples;Min_cycle;Max_cycle;Signal;HPM_P1;HPM_P2
2023/01/26 00:02:05;;;;;;;14.23;9.82;;;;;;;-1.27;79.18;147014.56;5043341;28;20029;-69
2023/01/26 00:04:30;;;;;;;15.73;10.00;;;;;;;-1.27;79.21;147015.88;5043080;28;20041;-68
2023/01/26 00:06:56;;;;;;;15.55;9.93;;;;;;;-1.19;78.52;147033.66;5042900;28;20037;-68
2023/01/26 00:09:21;;;;;;;16.00;10.52;;;;;;;-1.25;78.85;147019.69;5043022;28;20025;-68
2023/01/26 00:11:47;;;;;;;16.02;9.82;;;;;;;-1.14;78.06;147046.31;5042962;28;20089;-68
2023/01/26 00:14:12;;;;;;;15.57;10.25;;;;;;;-1.12;78.22;147051.44;5043287;28;20065;-68
2023/01/26 00:16:38;;;;;;;17.40;10.50;;;;;;;-1.01;78.53;147079.38;5043078;28;20025;-68
2023/01/26 00:19:04;;;;;;;16.92;9.50;;;;;;;-0.96;77.84;147092.06;5025363;28;20033;-69
2023/01/26 00:21:29;;;;;;;15.20;9.38;;;;;;;-0.98;78.08;147085.69;5025660;28;20213;-70
2023/01/26 00:23:56;;;;;;;14.32;9.85;;;;;;;-0.95;78.78;147094.59;5049632;28;20259;-68
2023/01/26 00:26:24;;;;;;;16.73;10.50;;;;;;;-1.12;78.75;147052.69;5060032;28;20037;-68
2023/01/26 00:28:50;;;;;;;14.27;9.68;;;;;;;-1.02;78.59;147076.81;5043286;28;20226;-67
2023/01/26 00:31:19;;;;;;;16.40;10.77;;;;;;;-1.14;78.37;147046.31;5042332;28;20056;-68
2023/01/26 00:33:44;;;;;;;13.95;9.45;;;;;;;-0.84;78.52;147120.00;5056077;28;20021;-68
2023/01/26 00:36:11;;;;;;;15.48;10.25;;;;;;;-0.88;77.15;147112.38;5051689;28;20029;-68
2023/01/26 00:38:36;;;;;;;16.85;10.07;;;;;;;-0.93;78.81;147099.66;5042560;28;20064;-68
2023/01/26 00:41:02;;;;;;;15.68;10.05;;;;;;;-0.90;78.27;147106.03;5042565;28;20367;-68
2023/01/26 00:43:28;;;;;;;16.30;9.95;;;;;;;-0.96;78.25;147092.06;5042353;28;20171;-69
2023/01/26 00:45:53;;;;;;;18.40;10.32;;;;;;;-1.16;78.88;147041.28;5042588;28;20068;-68
2023/01/26 00:48:19;;;;;;;16.38;10.55;;;;;;;-1.08;78.83;147061.59;5042888;28;20129;-69
2023/01/26 00:50:45;;;;;;;15.43;9.60;;;;;;;-0.95;78.29;147093.34;5042583;28;20071;-69
2023/01/26 00:53:10;;;;;;;15.13;9.82;;;;;;;-0.83;79.21;147122.56;5042546;28;20230;-68
2023/01/26 00:55:36;;;;;;;18.23;11.27;;;;;;;-1.01;77.89;147079.38;5042604;28;20029;-69
2023/01/26 00:58:05;;;;;;;14.23;9.40;;;;;;;-1.00;78.65;147080.63;5044402;28;20025;-69
2023/01/26 01:00:32;;;;;;;17.42;9.80;;;;;;;-1.22;78.88;147027.28;5046161;28;20048;-69
2023/01/26 01:02:58;;;;;;;18.13;11.52;;;;;;;-1.11;79.60;147055.22;5046272;28;20033;-69
2023/01/26 01:05:27;;;;;;;13.93;9.82;;;;;;;-1.17;80.04;147039.97;5045630;28;20037;-68
2023/01/26 01:07:52;;;;;;;17.20;10.57;;;;;;;-1.09;79.07;147060.28;5046458;28;20030;-68
2023/01/26 01:10:18;;;;;;;14.85;9.80;;;;;;;-1.03;79.18;147073.00;5045878;28;20029;-69
2023/01/26 01:12:44;;;;;;;16.83;10.27;;;;;;;-1.07;79.35;147065.41;5039022;28;20037;-69
2023/01/26 01:15:10;;;;;;;15.50;9.80;;;;;;;-1.01;80.10;147079.38;5046064;28;20033;-67
2023/01/26 01:17:36;;;;;;;17.17;10.77;;;;;;;-1.04;80.33;147071.75;5046271;28;20043;-70
2023/01/26 01:20:04;;;;;;;15.13;9.75;;;;;;;-1.14;80.34;147046.31;5046401;28;20092;-67
2023/01/26 01:22:31;;;;;;;14.60;8.88;;;;;;;-1.16;79.70;147042.50;5045716;28;20045;-67
2023/01/26 01:24:56;;;;;;;13.43;9.52;;;;;;;-1.23;79.95;147026.03;5045799;28;20056;-67
2023/01/26 01:27:23;;;;;;;15.10;9.80;;;;;;;-1.17;79.43;147039.97;5045734;28;20037;-68
2023/01/26 01:29:50;;;;;;;15.68;9.43;;;;;;;-1.06;79.82;147066.66;5045651;28;20093;-67
2023/01/26 01:32:16;;;;;;;16.80;9.38;;;;;;;-1.14;78.75;147046.31;5031588;28;20025;-67
2023/01/26 01:34:41;;;;;;;14.93;9.38;;;;;;;-1.11;79.51;147055.22;5027945;28;20029;-67
2023/01/26 01:37:07;;;;;;;14.38;9.15;;;;;;;-1.18;79.42;147036.16;5045472;28;20037;-68
2023/01/26 01:39:33;;;;;;;15.48;9.25;;;;;;;-1.09;79.23;147059.03;5045552;28;20032;-68
2023/01/26 01:41:58;;;;;;;14.57;9.70;;;;;;;-1.01;78.97;147078.06;5045826;28;20025;-69
2023/01/26 01:44:25;;;;;;;15.43;9.55;;;;;;;-1.10;79.13;147056.50;5033748;28;20025;-67
2023/01/26 01:47:03;;;;;;;16.38;9.77;;;;;;;-1.20;79.36;147031.09;5025936;28;20200;-68
2023/01/26 01:49:33;;;;;;;14.48;9.20;;;;;;;-1.18;79.49;147037.47;5044265;28;20325;-70
2023/01/26 01:51:59;;;;;;;14.38;9.48;;;;;;;-1.27;79.06;147015.88;5046105;28;20037;-69
2023/01/26 01:55:07;;;;;;;14.40;9.25;;;;;;;-1.38;79.91;146987.94;5045323;28;20038;-69
2023/01/26 01:57:43;;;;;;;15.65;9.93;;;;;;;-1.35;80.04;146994.25;5043929;28;20099;-69
2023/01/26 02:00:14;;;;;;;16.25;9.80;;;;;;;-1.22;80.04;147027.28;5045397;28;20364;-69
2023/01/26 02:02:43;;;;;;;12.25;8.88;;;;;;;-1.24;79.93;147022.19;5045553;28;20076;-68
2023/01/26 02:05:25;;;;;;;13.50;9.05;;;;;;;-1.26;79.10;147018.38;5045381;28;20029;-69
2023/01/26 02:07:52;;;;;;;14.27;8.77;;;;;;;-1.28;79.91;147012.06;5045309;28;20026;-70
2023/01/26 02:10:19;;;;;;;12.93;8.45;;;;;;;-1.17;80.14;147038.72;5044445;28;20089;-68
2023/01/26 02:12:52;;;;;;;14.10;9.18;;;;;;;-1.15;79.08;147045.06;5045203;28;20021;-70
2023/01/26 02:15:17;;;;;;;14.60;9.77;;;;;;;-1.19;79.42;147033.66;5044969;28;20029;-70
2023/01/26 02:17:44;;;;;;;13.60;9.13;;;;;;;-1.15;79.00;147045.06;5044955;28;20045;-71
2023/01/26 02:20:21;;;;;;;15.75;9.90;;;;;;;-1.25;79.16;147020.94;5044476;28;20089;-68
2023/01/26 02:22:56;;;;;;;14.52;9.00;;;;;;;-1.22;79.80;147028.56;5007567;28;20207;-68
2023/01/26 02:25:37;;;;;;;12.98;9.55;;;;;;;-1.17;79.08;147038.72;5029398;28;20022;-67
2023/01/26 02:28:03;;;;;;;12.80;8.73;;;;;;;-1.08;79.12;147061.59;5022232;28;20048;-69
2023/01/26 02:30:30;;;;;;;14.18;9.00;;;;;;;-1.13;78.51;147050.13;5025455;28;20026;-69
2023/01/26 02:32:56;;;;;;;14.75;9.13;;;;;;;-1.11;79.02;147055.22;5030467;28;20385;-68
2023/01/26 02:35:21;;;;;;;14.45;9.50;;;;;;;-1.36;79.55;146993.00;5044583;28;20036;-69
2023/01/26 02:37:47;;;;;;;13.50;9.30;;;;;;;-1.14;79.89;147047.63;5044626;28;20052;-68
2023/01/26 02:40:20;;;;;;;11.80;8.93;;;;;;;-1.02;79.72;147076.81;5044857;28;20025;-70
2023/01/26 02:42:46;;;;;;;16.60;10.18;;;;;;;-1.13;79.30;147048.88;5044557;28;20033;-69
2023/01/26 02:45:14;;;;;;;12.40;8.85;;;;;;;-1.12;79.05;147052.69;5067979;28;20119;-69
2023/01/26 02:47:40;;;;;;;13.73;8.60;;;;;;;-1.24;79.20;147022.19;5081204;28;20099;-69
2023/01/26 02:50:09;;;;;;;15.93;9.45;;;;;;;-1.36;79.28;146993.00;5064422;28;20332;-69
2023/01/26 02:52:35;;;;;;;15.65;10.18;;;;;;;-1.23;79.59;147026.03;5063387;28;20040;-70
2023/01/26 02:57:45;;;;;;;13.23;9.05;;;;;;;-1.05;80.16;147069.22;5064101;28;20032;-69
2023/01/26 03:00:17;;;;;;;12.93;9.45;;;;;;;-1.27;80.00;147014.56;5046277;28;20232;-68
2023/01/26 03:02:45;;;;;;;12.68;8.93;;;;;;;-1.15;79.59;147043.81;5063924;28;20056;-69
2023/01/26 03:05:10;;;;;;;12.68;9.45;;;;;;;-1.17;79.01;147038.72;5064279;28;20044;-68
2023/01/26 03:07:36;;;;;;;12.52;8.48;;;;;;;-1.21;79.83;147029.84;5076633;28;20024;-70
2023/01/26 03:10:03;;;;;;;13.60;9.05;;;;;;;-1.19;79.71;147034.91;5064159;28;20033;-68
2023/01/26 03:12:29;;;;;;;15.15;8.90;;;;;;;-1.06;80.14;147066.66;5073173;28;20406;-69
2023/01/26 03:17:38;;;;;;;15.25;8.93;;;;;;;-1.26;79.81;147018.38;5063722;28;20028;-69
2023/01/26 03:28:21;;;;;;;14.05;9.73;;;;;;;-1.38;80.76;146987.94;5063321;28;20032;-70
2023/01/26 03:30:51;;;;;;;13.07;9.18;;;;;;;-1.26;80.10;147018.38;5049969;28;20325;-69
2023/01/26 03:33:18;;;;;;;15.32;10.35;;;;;;;-1.25;80.95;147019.69;5063443;28;20036;-69
2023/01/26 03:35:44;;;;;;;13.35;9.45;;;;;;;-1.20;80.30;147031.09;5066219;28;20028;-69
2023/01/26 03:38:10;;;;;;;15.60;10.32;;;;;;;-1.20;79.82;147031.09;5083917;28;20034;-69
2023/01/26 03:57:11;;;;;;;13.73;9.90;;;;;;;-1.42;81.18;146977.78;5021613;28;20064;-69
2023/01/26 03:59:36;;;;;;;14.35;10.52;;;;;;;-1.40;79.85;146982.84;5025565;28;20048;-68
2023/01/26 04:10:17;;;;;;;16.52;10.32;;;;;;;-1.17;79.92;147039.97;5078658;28;20095;-69
2023/01/26 04:12:43;;;;;;;16.65;10.85;;;;;;;-1.19;79.55;147033.66;5074212;28;20024;-70
2023/01/26 04:23:21;;;;;;;14.07;9.80;;;;;;;-1.13;79.18;147050.13;5082965;28;20216;-69
2023/01/26 04:25:47;;;;;;;15.48;10.93;;;;;;;-1.16;79.39;147041.28;5062603;28;20024;-68
2023/01/26 04:28:13;;;;;;;16.30;10.27;;;;;;;-1.10;80.11;147057.78;5078511;28;20036;-68
2023/01/26 04:30:39;;;;;;;14.13;9.82;;;;;;;-1.19;79.04;147033.66;5071498;28;20083;-68
2023/01/26 04:33:04;;;;;;;16.48;10.70;;;;;;;-1.19;79.33;147033.66;5075101;28;20028;-69
2023/01/26 04:35:30;;;;;;;19.17;10.43;;;;;;;-1.20;78.94;147031.09;5067342;28;20047;-69
2023/01/26 04:37:55;;;;;;;14.82;10.52;;;;;;;-1.42;80.64;146977.78;5087241;28;20028;-67
2023/01/26 04:40:21;;;;;;;17.42;10.32;;;;;;;-1.25;79.52;147020.94;5070676;28;20039;-68
2023/01/26 04:42:46;;;;;;;15.38;11.05;;;;;;;-1.25;80.46;147020.94;5064581;28;20024;-66
2023/01/26 04:45:12;;;;;;;15.50;10.52;;;;;;;-1.09;79.13;147059.03;5061510;28;20245;-68
2023/01/26 04:47:37;;;;;;;16.02;10.20;;;;;;;-1.43;79.94;146976.47;5046768;28;20282;-67
2023/01/26 04:50:03;;;;;;;18.10;10.63;;;;;;;-1.29;79.83;147009.53;5046650;28;20217;-70
2023/01/26 04:52:29;;;;;;;14.85;10.43;;;;;;;-1.28;78.84;147012.06;5045369;28;20088;-68
2023/01/26 04:54:55;;;;;;;15.10;11.15;;;;;;;-1.30;79.58;147008.22;5046156;28;20048;-70
2023/01/26 04:57:22;;;;;;;15.20;9.55;;;;;;;-1.48;79.75;146962.50;5028625;28;20033;-71
2023/01/26 04:59:47;;;;;;;16.00;10.40;;;;;;;-1.33;79.23;147000.59;5045711;28;20034;-69
2023/01/26 05:02:13;;;;;;;17.52;11.40;;;;;;;-1.14;79.87;147047.63;5045823;28;20085;-69
2023/01/26 05:04:39;;;;;;;15.88;10.60;;;;;;;-1.11;78.94;147053.94;5044402;28;20078;-68
2023/01/26 05:07:04;;;;;;;17.55;10.82;;;;;;;-1.16;79.25;147041.28;5046150;28;20053;-71
2023/01/26 05:09:30;;;;;;;15.10;10.82;;;;;;;-1.16;78.69;147042.50;5045760;28;20025;-68
2023/01/26 05:12:32;;;;;;;16.30;10.65;;;;;;;-1.42;79.87;146979.03;5028281;28;20033;-68
2023/01/26 05:14:41;;;;;;;14.38;10.30;;;;;;;-1.13;79.62;147050.13;5045489;28;20080;-69
2023/01/26 05:17:06;;;;;;;14.35;10.27;;;;;;;-1.19;78.82;147034.91;5028614;28;20230;-70
2023/01/26 05:19:32;;;;;;;14.70;10.43;;;;;;;-1.16;79.26;147042.50;5045372;28;20113;-69
2023/01/26 05:21:57;;;;;;;16.92;10.38;;;;;;;-1.27;78.94;147014.56;5044985;28;20025;-69
2023/01/26 05:24:23;;;;;;;15.82;10.75;;;;;;;-1.09;78.67;147059.03;5045947;28;20033;-70
2023/01/26 05:27:19;;;;;;;14.05;10.13;;;;;;;-1.26;78.96;147018.38;5045867;28;20056;-69
2023/01/26 05:29:34;;;;;;;16.25;10.38;;;;;;;-1.03;78.65;147073.00;5045142;28;20029;-69
2023/01/26 05:32:00;;;;;;;16.20;10.70;;;;;;;-1.11;78.71;147053.94;5044610;28;20028;-70
2023/01/26 05:34:26;;;;;;;18.27;10.73;;;;;;;-1.22;78.23;147027.28;5045250;28;20029;-68
2023/01/26 05:36:51;;;;;;;17.25;10.32;;;;;;;-1.15;78.40;147043.81;5045496;28;20032;-69
2023/01/26 05:39:17;;;;;;;17.48;10.20;;;;;;;-1.31;78.48;147005.72;5027906;28;20125;-71
2023/01/26 05:41:42;;;;;;;15.35;10.07;;;;;;;-1.17;78.86;147039.97;5045744;28;20052;-69
2023/01/26 05:44:08;;;;;;;15.35;10.48;;;;;;;-1.22;78.90;147028.56;5044372;28;20022;-69
2023/01/26 05:46:33;;;;;;;13.30;10.15;;;;;;;-1.20;78.43;147031.09;5045245;28;20108;-70
2023/01/26 05:48:59;;;;;;;19.27;10.98;;;;;;;-1.17;78.33;147038.72;5045538;28;20088;-70
2023/01/26 05:51:24;;;;;;;15.35;9.98;;;;;;;-1.07;78.89;147065.41;5027910;28;20025;-69
2023/01/26 05:53:50;;;;;;;15.25;10.18;;;;;;;-0.99;77.74;147084.44;5045229;28;20045;-70
2023/01/26 05:56:15;;;;;;;16.08;11.43;;;;;;;-1.15;78.85;147043.81;5036685;28;20039;-68
2023/01/26 05:58:41;;;;;;;16.13;10.90;;;;;;;-1.03;78.70;147073.00;5035866;28;20049;-69
2023/01/26 06:01:07;;;;;;;15.57;10.75;;;;;;;-1.03;77.68;147073.00;5032923;28;20044;-71
2023/01/26 06:03:33;;;;;;;16.23;10.95;;;;;;;-1.06;78.35;147066.66;5036323;28;20247;-70
2023/01/26 06:05:58;;;;;;;18.05;11.10;;;;;;;-0.96;78.43;147090.78;5018607;28;20073;-70
2023/01/26 06:08:24;;;;;;;15.48;10.20;;;;;;;-0.95;78.36;147094.59;5045232;28;20036;-69
2023/01/26 06:10:49;;;;;;;16.92;10.13;;;;;;;-1.09;77.23;147059.03;5045140;28;20063;-69
2023/01/26 06:13:15;;;;;;;16.13;11.55;;;;;;;-1.19;78.06;147033.66;5030689;28;20054;-68
2023/01/26 06:15:40;;;;;;;13.82;10.75;;;;;;;-1.14;78.13;147046.31;5034578;28;20028;-70
2023/01/26 06:18:06;;;;;;;17.33;11.25;;;;;;;-1.15;77.94;147043.81;5023005;28;20025;-68
2023/01/26 06:20:31;;;;;;;15.65;11.02;;;;;;;-1.03;78.12;147074.28;5030533;28;20259;-68
2023/01/26 06:23:00;;;;;;;14.85;10.45;;;;;;;-1.14;78.17;147046.31;5044414;28;20029;-68
2023/01/26 06:25:26;;;;;;;14.73;10.80;;;;;;;-1.14;78.05;147047.63;5044155;28;20341;-69
2023/01/26 06:27:56;;;;;;;16.00;10.02;;;;;;;-1.31;77.72;147005.72;5042558;28;20100;-69
2023/01/26 06:30:21;;;;;;;15.55;11.27;;;;;;;-1.07;77.95;147065.41;5044685;28;20040;-69
2023/01/26 06:32:47;;;;;;;17.48;11.10;;;;;;;-1.15;78.44;147043.81;5044692;28;20041;-70
2023/01/26 06:35:13;;;;;;;18.45;11.65;;;;;;;-1.05;77.86;147069.22;5044460;28;20022;-70
2023/01/26 06:37:38;;;;;;;13.45;10.90;;;;;;;-0.98;77.96;147085.69;5044376;28;20033;-70
2023/01/26 06:40:04;;;;;;;15.18;10.88;;;;;;;-0.99;77.81;147084.44;5044719;28;20225;-69
2023/01/26 06:42:30;;;;;;;16.50;11.05;;;;;;;-0.91;77.92;147103.53;5044423;28;20056;-70
2023/01/26 06:44:57;;;;;;;18.05;11.70;;;;;;;-1.02;77.14;147076.81;5063542;28;20056;-69
2023/01/26 06:47:23;;;;;;;15.30;11.02;;;;;;;-1.01;77.90;147078.06;5084497;28;20032;-70
2023/01/26 06:49:49;;;;;;;16.08;10.32;;;;;;;-0.90;77.59;147107.31;5047785;28;20028;-68
2023/01/26 06:52:31;;;;;;;19.20;12.02;;;;;;;-0.98;78.02;147087.00;5074503;28;20025;-70
2023/01/26 06:54:59;;;;;;;15.85;10.95;;;;;;;-0.97;77.69;147089.53;5073852;28;20035;-69
2023/01/26 06:57:25;;;;;;;14.65;10.13;;;;;;;-0.87;78.00;147114.94;5077000;28;20025;-67
2023/01/26 06:59:50;;;;;;;15.93;11.10;;;;;;;-0.92;77.59;147102.22;5048852;28;20031;-70
2023/01/26 07:02:19;;;;;;;15.57;10.88;;;;;;;-1.04;77.39;147071.75;5074203;28;20029;-69
2023/01/26 07:04:45;;;;;;;17.25;11.27;;;;;;;-0.78;77.38;147135.28;5064040;28;20031;-69
2023/01/26 07:07:11;;;;;;;19.10;11.00;;;;;;;-0.88;77.46;147112.38;5073714;28;20060;-71
2023/01/26 07:09:36;;;;;;;14.65;10.60;;;;;;;-0.76;77.17;147141.59;5065482;28;20036;-70
2023/01/26 07:12:03;;;;;;;15.20;10.77;;;;;;;-0.73;77.84;147147.97;5062488;28;20037;-70
2023/01/26 07:14:31;;;;;;;19.25;11.32;;;;;;;-0.91;77.21;147104.78;5045262;28;20036;-69
2023/01/26 07:16:56;;;;;;;15.77;11.05;;;;;;;-0.73;78.12;147147.97;5063577;28;20068;-70
2023/01/26 07:19:22;;;;;;;16.38;11.13;;;;;;;-0.62;77.14;147174.66;5078172;28;20194;-68
2023/01/26 07:21:48;;;;;;;18.08;11.57;;;;;;;-0.53;76.71;147197.50;5083335;28;20197;-70
2023/01/26 07:24:13;;;;;;;15.32;11.15;;;;;;;-0.65;76.41;147167.03;5083720;28;20012;-70
2023/01/26 07:26:39;;;;;;;15.23;10.80;;;;;;;-0.84;76.70;147121.31;5082915;28;20032;-68
2023/01/26 07:29:04;;;;;;;16.40;11.57;;;;;;;-0.77;77.38;147139.09;5063592;28;20028;-68
2023/01/26 07:31:30;;;;;;;15.93;11.48;;;;;;;-0.76;77.12;147141.59;5064928;28;20096;-69
2023/01/26 07:33:56;;;;;;;16.45;11.35;;;;;;;-0.83;78.10;147123.81;5045702;28;20028;-69
2023/01/26 07:36:21;;;;;;;14.98;11.02;;;;;;;-0.74;77.45;147146.69;5062071;28;20217;-67
2023/01/26 07:38:47;;;;;;;14.57;10.63;;;;;;;-0.64;77.96;147170.84;5062809;28;20029;-69
2023/01/26 07:41:12;;;;;;;16.92;11.73;;;;;;;-0.55;77.62;147193.69;5062189;28;20036;-69
2023/01/26 07:43:39;;;;;;;13.73;10.07;;;;;;;-0.64;77.53;147170.84;5061966;28;20092;-69
2023/01/26 07:46:05;;;;;;;15.40;10.60;;;;;;;-0.52;77.32;147201.31;5062655;28;20090;-70
2023/01/26 07:48:30;;;;;;;13.98;10.25;;;;;;;-0.56;76.82;147191.13;5062673;28;20090;-68
2023/01/26 07:51:02;;;;;;;15.07;10.20;;;;;;;-0.71;76.91;147154.31;5063622;28;20184;-71
2023/01/26 07:53:29;;;;;;;14.70;10.10;;;;;;;-0.82;77.34;147126.38;5062349;28;20392;-68
2023/01/26 07:56:15;;;;;;;15.98;9.98;;;;;;;-0.68;77.57;147160.69;5062245;28;20036;-67
2023/01/26 07:58:41;;;;;;;17.13;9.90;;;;;;;-0.59;77.19;147182.28;5061707;28;20351;-69
2023/01/26 08:01:09;;;;;;;16.02;9.93;;;;;;;-0.60;76.80;147181.03;5062503;28;20076;-70
2023/01/26 08:03:35;;;;;;;14.20;10.18;;;;;;;-0.64;76.12;147170.84;5062586;28;20029;-69
2023/01/26 08:06:00;;;;;;;16.88;10.20;;;;;;;-0.41;76.80;147228.03;5062499;28;20024;-70
2023/01/26 08:08:27;;;;;;;12.88;9.95;;;;;;;-0.48;77.16;147208.97;5062390;28;20032;-71
2023/01/26 08:10:56;;;;;;;12.95;9.43;;;;;;;-0.68;76.95;147159.38;5062216;28;20048;-70
2023/01/26 08:13:21;;;;;;;15.93;10.18;;;;;;;-0.93;77.95;147099.66;5062969;28;20033;-68
2023/01/26 08:15:47;;;;;;;14.70;9.70;;;;;;;-0.58;77.73;147186.09;5062955;28;20064;-68
2023/01/26 08:18:12;;;;;;;16.60;9.70;;;;;;;-0.46;76.68;147215.28;5063193;28;20032;-70
2023/01/26 08:20:38;;;;;;;15.50;10.30;;;;;;;-0.54;77.25;147196.25;5061030;28;20048;-69
2023/01/26 08:23:03;;;;;;;12.68;9.15;;;;;;;-0.51;77.55;147202.63;5061910;28;20313;-69
2023/01/26 08:25:31;;;;;;;14.48;10.07;;;;;;;-0.44;77.06;147220.41;5062492;28;20048;-70
2023/01/26 08:27:57;;;;;;;14.25;9.27;;;;;;;-0.33;77.05;147245.81;5061945;28;20036;-70
2023/01/26 08:30:22;;;;;;;12.32;9.68;;;;;;;-0.25;76.24;147267.41;5062323;28;20028;-70
2023/01/26 08:32:48;;;;;;;13.10;9.55;;;;;;;-0.49;76.62;147206.44;5062012;28;20052;-70
2023/01/26 08:35:14;;;;;;;13.95;9.15;;;;;;;-0.44;77.33;147219.09;5061196;28;20021;-69
2023/01/26 08:37:39;;;;;;;12.55;9.25;;;;;;;-0.28;76.70;147259.78;5061534;28;20032;-70
2023/01/26 08:40:05;;;;;;;14.45;9.75;;;;;;;-0.49;76.33;147206.44;5062912;28;20075;-70
2023/01/26 08:42:31;;;;;;;15.43;10.23;;;;;;;-0.50;76.99;147203.88;5069324;28;20123;-70
2023/01/26 08:44:57;;;;;;;16.35;9.95;;;;;;;-0.30;76.52;147254.72;5064895;28;20325;-68
2023/01/26 08:47:22;;;;;;;12.23;9.20;;;;;;;-0.26;76.14;147263.59;5061503;28;20298;-70
2023/01/26 08:49:48;;;;;;;12.23;8.63;;;;;;;-0.24;76.74;147269.97;5063827;28;20067;-70
2023/01/26 08:52:13;;;;;;;12.88;8.77;;;;;;;-0.26;76.68;147263.59;5064486;28;20055;-68
2023/01/26 08:54:39;;;;;;;12.43;9.07;;;;;;;-0.26;76.68;147264.84;5062260;28;20040;-69
2023/01/26 08:57:05;;;;;;;12.63;8.95;;;;;;;-0.24;75.91;147269.97;5066200;28;20028;-69
2023/01/26 08:59:30;;;;;;;13.15;9.13;;;;;;;-0.37;76.45;147236.88;5083001;28;20028;-70
2023/01/26 09:01:56;;;;;;;13.35;9.02;;;;;;;-0.21;77.07;147276.34;5064323;28;20048;-69
2023/01/26 09:04:21;;;;;;;12.95;9.35;;;;;;;-0.20;77.56;147278.84;5075747;28;20028;-69
2023/01/26 09:06:47;;;;;;;12.57;9.35;;;;;;;-0.16;76.50;147289.00;5073368;28;20024;-69
2023/01/26 09:09:15;;;;;;;11.90;8.85;;;;;;;-0.23;76.26;147272.53;5065849;28;20041;-68
2023/01/26 09:11:40;;;;;;;12.73;9.23;;;;;;;-0.32;76.64;147248.38;5080728;28;20044;-71
2023/01/26 09:14:06;;;;;;;12.88;8.65;;;;;;;-0.15;77.05;147291.56;5062557;28;20021;-68
2023/01/26 09:16:32;;;;;;;11.70;8.57;;;;;;;-0.30;76.78;147253.44;5062092;28;20025;-68
2023/01/26 09:18:57;;;;;;;11.95;8.75;;;;;;;-0.12;76.81;147299.19;5045610;28;20033;-69
2023/01/26 09:21:23;;;;;;;11.38;8.50;;;;;;;-0.07;76.69;147310.63;5071423;28;20024;-67
2023/01/26 09:23:49;;;;;;;11.63;8.43;;;;;;;-0.11;76.63;147300.50;5085130;28;20044;-67
2023/01/26 09:26:14;;;;;;;12.32;8.90;;;;;;;-0.15;76.41;147291.56;5047103;28;20089;-68
2023/01/26 09:28:40;;;;;;;12.32;8.57;;;;;;;-0.04;76.04;147318.28;5040418;28;20052;-70
2023/01/26 09:31:11;;;;;;;14.05;8.65;;;;;;;-0.04;76.55;147318.28;5056580;28;20025;-69
2023/01/26 09:33:37;;;;;;;13.27;9.52;;;;;;;-0.26;76.96;147263.59;5065402;28;20158;-69
2023/01/26 09:36:08;;;;;;;12.07;8.60;;;;;;;-0.19;76.78;147282.66;5068059;28;20123;-69
2023/01/26 09:38:34;;;;;;;11.75;8.38;;;;;;;-0.02;76.28;147323.34;5067651;28;20087;-67
2023/01/26 09:41:02;;;;;;;12.02;8.10;;;;;;;-0.31;77.10;147250.88;5066897;28;20236;-69
2023/01/26 09:43:46;;;;;;;13.40;8.00;;;;;;;-0.20;76.77;147278.84;5074078;28;20205;-70
2023/01/26 09:46:43;;;;;;;10.02;8.25;;;;;;;-0.25;77.01;147267.41;5065442;28;20055;-68
2023/01/26 09:49:48;;;;;;;11.50;8.32;;;;;;;-0.03;76.47;147322.09;5068375;28;20036;-68
2023/01/26 09:52:52;;;;;;;10.75;8.80;;;;;;;0.05;76.27;147341.16;4996593;28;20037;-69
2023/01/26 09:55:20;;;;;;;11.70;7.97;;;;;;;-0.03;76.46;147322.09;5036839;28;20049;-68
2023/01/26 09:57:49;;;;;;;12.48;8.57;;;;;;;-0.11;76.65;147300.50;5056848;28;20037;-69
2023/01/26 10:00:42;;;;;;;11.35;7.38;;;;;;;-0.04;75.99;147318.28;5052253;28;20028;-68
2023/01/26 10:03:34;;;;;;;13.10;8.20;;;;;;;-0.06;76.73;147313.16;5064304;28;20275;-70
2023/01/26 10:06:05;;;;;;;10.77;7.72;;;;;;;0.17;75.96;147370.38;5054422;28;20016;-68
2023/01/26 10:08:31;;;;;;;12.18;8.15;;;;;;;0.05;76.13;147339.88;5062165;28;20025;-71
2023/01/26 10:11:10;;;;;;;12.93;8.25;;;;;;;0.05;76.00;147339.88;5064268;28;20031;-69
2023/01/26 10:13:36;;;;;;;11.65;7.95;;;;;;;-0.19;77.07;147282.66;5063675;28;20021;-69
2023/01/26 10:16:08;;;;;;;10.82;8.23;;;;;;;-0.09;76.83;147306.81;5064876;28;20040;-69
2023/01/26 10:19:05;;;;;;;13.80;8.43;;;;;;;-0.10;76.35;147303.00;5064593;28;20017;-70
2023/01/26 10:21:39;;;;;;;11.25;8.30;;;;;;;-0.18;76.83;147283.94;5059818;28;20044;-68
2023/01/26 10:24:10;;;;;;;11.85;8.15;;;;;;;-0.27;77.22;147262.34;5046025;28;20186;-69
2023/01/26 10:26:36;;;;;;;12.73;8.23;;;;;;;0.08;76.97;147348.75;5061202;28;20028;-69
2023/01/26 10:29:02;;;;;;;14.00;8.77;;;;;;;0.02;76.52;147333.53;5062143;28;20213;-72
2023/01/26 10:31:31;;;;;;;17.45;10.07;;;;;;;-0.08;76.93;147308.09;5061474;28;20033;-70
2023/01/26 10:34:00;;;;;;;13.25;8.88;;;;;;;0.01;76.18;147329.72;5065001;28;20206;-68
2023/01/26 10:36:30;;;;;;;11.27;7.68;;;;;;;-0.01;76.20;147327.16;5064374;28;20021;-68
2023/01/26 10:39:07;;;;;;;13.27;8.30;;;;;;;-0.09;76.71;147306.81;5064966;28;20347;-69
2023/01/26 10:41:32;;;;;;;13.63;8.30;;;;;;;0.15;77.11;147366.56;5066586;28;20254;-68
2023/01/26 10:44:19;;;;;;;11.75;8.23;;;;;;;0.06;76.61;147342.41;5074685;28;20019;-70
2023/01/26 10:46:45;;;;;;;13.35;8.23;;;;;;;0.09;76.37;147350.06;5084717;28;20051;-69
2023/01/26 10:49:10;;;;;;;13.73;8.82;;;;;;;0.05;76.63;147339.88;5073379;28;20191;-69
2023/01/26 10:51:39;;;;;;;11.07;8.43;;;;;;;-0.10;77.33;147304.31;5070561;28;20032;-69
2023/01/26 10:54:18;;;;;;;14.65;9.48;;;;;;;0.03;76.96;147336.06;5081775;28;20030;-68
2023/01/26 10:56:47;;;;;;;12.13;8.75;;;;;;;-0.01;77.14;147325.91;5064344;28;20028;-70
2023/01/26 10:59:21;;;;;;;12.13;8.93;;;;;;;0.05;76.73;147339.88;5064000;28;20031;-69
2023/01/26 11:02:18;;;;;;;13.75;8.07;;;;;;;0.15;76.97;147365.31;5062889;28;20029;-69
2023/01/26 11:05:05;;;;;;;13.20;8.65;;;;;;;0.31;77.08;147406.03;5045943;28;20080;-68
2023/01/26 11:07:38;;;;;;;10.75;8.27;;;;;;;0.32;76.08;147408.53;5063971;28;20057;-69
2023/01/26 11:10:19;;;;;;;11.32;8.55;;;;;;;0.34;76.93;147412.34;5073766;28;20032;-71
2023/01/26 11:12:45;;;;;;;12.02;8.70;;;;;;;0.38;76.10;147421.25;5076286;28;20048;-69
2023/01/26 11:15:16;;;;;;;11.48;8.27;;;;;;;0.25;77.78;147390.72;5065941;28;20029;-70
2023/01/26 11:17:55;;;;;;;12.05;8.35;;;;;;;0.20;78.02;147376.75;5084098;28;20092;-70
2023/01/26 11:20:45;;;;;;;13.18;8.43;;;;;;;0.27;77.86;147394.53;5043884;28;20067;-69
2023/01/26 11:23:45;;;;;;;13.00;8.98;;;;;;;0.11;77.22;147356.38;5080934;28;20051;-69
2023/01/26 11:26:29;;;;;;;15.23;9.55;;;;;;;0.14;77.86;147364.06;5045463;28;20045;-69
2023/01/26 11:29:25;;;;;;;12.73;9.32;;;;;;;0.06;78.64;147343.69;5076801;28;20208;-71
2023/01/26 11:32:03;;;;;;;14.77;8.95;;;;;;;0.19;78.99;147374.22;5066941;28;20055;-70
2023/01/26 11:34:55;;;;;;;12.98;9.02;;;;;;;-0.20;79.62;147280.13;5062601;28;20040;-71
2023/01/26 11:37:29;;;;;;;13.93;9.02;;;;;;;-0.07;79.39;147310.63;5062754;28;20074;-70
2023/01/26 11:39:57;;;;;;;11.38;8.30;;;;;;;-0.02;79.17;147324.59;5063628;28;20028;-70
2023/01/26 11:43:07;;;;;;;14.27;9.13;;;;;;;0.04;80.06;147338.59;5061887;28;20016;-68
2023/01/26 11:45:44;;;;;;;12.00;8.32;;;;;;;-0.02;80.96;147323.34;5035538;28;20268;-71
2023/01/26 11:48:20;;;;;;;15.07;8.77;;;;;;;0.13;80.30;147361.50;5065534;28;20041;-71
2023/01/26 11:50:55;;;;;;;13.90;8.90;;;;;;;0.16;80.08;147369.13;5083468;28;20031;-70
2023/01/26 11:53:29;;;;;;;14.40;9.27;;;;;;;0.22;80.68;147381.84;5035288;28;20033;-71
2023/01/26 11:56:07;;;;;;;18.08;9.25;;;;;;;0.30;80.74;147402.16;5076634;28;20032;-70
2023/01/26 11:58:50;;;;;;;14.63;9.25;;;;;;;0.09;81.08;147351.31;5051653;28;20037;-71
2023/01/26 12:01:27;;;;;;;15.40;9.95;;;;;;;0.01;81.61;147329.72;5051321;28;20048;-71
2023/01/26 12:03:54;;;;;;;13.60;9.60;;;;;;;0.05;81.40;147341.16;5075001;28;20032;-70
2023/01/26 12:06:35;;;;;;;15.82;10.13;;;;;;;0.19;81.51;147375.47;5057822;28;20380;-70
2023/01/26 12:09:31;;;;;;;14.43;9.77;;;;;;;-0.02;80.74;147324.59;5082421;28;20079;-71
2023/01/26 12:12:07;;;;;;;16.13;10.23;;;;;;;0.16;80.63;147369.13;5054124;28;20036;-70